CheckWX is a tool to help pilots better visualize weather data.  It is not intended as a substitute for an official pre-flight weather briefing.

16:41:42 UTC

EFTU TAF
Turku Airport
Turku, Finland
TAF EFTU 201434Z 2015/2115 18008KT CAVOK TEMPO 2016/2020 BKN013 BECMG 2020/2022 18018G34KT BECMG 2023/2101 BKN008 TEMPO 2101/2110 4000 RA BECMG 2110/2112 BKN015

Feb-20@
15:00 UTC

Feb-20 @ 15:00 UTC

Feb-20@
20:00 UTC

Feb-20 @ 20:00 UTC

TAF EFTU 201434Z 2015/2115 18008KT CAVOK
Wind
  • 180° at 8 KTS
Conditions
No significant weather
Cloud Levels
  • No significant clouds

Feb-20@
16:00 UTC

Feb-20 @ 16:00 UTC

Feb-20@
20:00 UTC

Feb-20 @ 20:00 UTC

TEMPO 2016/2020 BKN013

Temporary

Temporary Changes expected for less than half the time period

Cloud Levels
  • Broken at 1,300' AGL

Feb-20@
20:00 UTC

Feb-20 @ 20:00 UTC

Feb-20@
23:00 UTC

Feb-20 @ 23:00 UTC

BECMG 2020/2022 18018G34KT

Becoming

Becoming Conditions expected by Thu, Feb 20, 2020 @ 22:00 UTC

Wind
  • 180° at 18 KTS
  • {Gusting to 34 KTS
Conditions
No significant weather
Cloud Levels
  • No significant clouds

Feb-20@
23:00 UTC

Feb-20 @ 23:00 UTC

Feb-21@
10:00 UTC

Feb-21 @ 10:00 UTC

BECMG 2023/2101 BKN008

Becoming

Becoming Conditions expected by Fri, Feb 21, 2020 @ 01:00 UTC

Wind
  • 180° at 18 KTS
  • {Gusting to 34 KTS
Conditions
No significant weather
Cloud Levels
  • Broken at 800' AGL

Feb-21@
01:00 UTC

Feb-21 @ 01:00 UTC

Feb-21@
10:00 UTC

Feb-21 @ 10:00 UTC

TEMPO 2101/2110 4000 RA

Temporary

Temporary Changes expected for less than half the time period

Conditions
Rain

Feb-21@
10:00 UTC

Feb-21 @ 10:00 UTC

Feb-21@
15:00 UTC

Feb-21 @ 15:00 UTC

BECMG 2110/2112 BKN015

Becoming

Becoming Conditions expected by Fri, Feb 21, 2020 @ 12:00 UTC

Wind
  • 180° at 18 KTS
  • {Gusting to 34 KTS
Conditions
No significant weather
Cloud Levels
  • Broken at 1,500' AGL